createdAt,value
2018-06-25T00:00:40.693Z,16.23
2018-06-25T00:03:10.711Z,16.24
2018-06-25T00:05:40.766Z,16.17
2018-06-25T00:08:11.227Z,16.21
2018-06-25T00:10:41.583Z,16.29
2018-06-25T00:13:11.735Z,16.24
2018-06-25T00:15:41.893Z,16.33
2018-06-25T00:18:11.984Z,16.36
2018-06-25T00:20:42.312Z,16.34
2018-06-25T00:23:12.478Z,16.36
2018-06-25T00:25:42.590Z,16.32
2018-06-25T00:28:12.598Z,16.37
2018-06-25T00:30:42.948Z,16.32
2018-06-25T00:33:13.450Z,16.30
2018-06-25T00:40:28.362Z,16.21
2018-06-25T00:42:59.385Z,16.34
2018-06-25T00:45:30.504Z,16.36
2018-06-25T00:48:00.528Z,16.44
2018-06-25T00:50:30.913Z,16.49
2018-06-25T00:53:01.192Z,16.43
2018-06-25T00:55:31.379Z,16.48
2018-06-25T00:58:02.393Z,16.48
2018-06-25T01:00:32.469Z,16.36
2018-06-25T01:03:02.584Z,16.33
2018-06-25T01:05:32.622Z,16.27
2018-06-25T01:08:02.913Z,16.31
2018-06-25T01:10:32.673Z,16.14
2018-06-25T01:13:02.800Z,16.14
2018-06-25T01:15:32.709Z,16.13
2018-06-25T01:18:03.094Z,16.13
2018-06-25T01:20:34.339Z,16.12
2018-06-25T01:23:05.400Z,16.23
2018-06-25T01:25:36.688Z,16.19
2018-06-25T01:28:07.168Z,16.24
2018-06-25T01:30:37.415Z,16.04
2018-06-25T01:33:07.698Z,16.01
2018-06-25T01:35:38.009Z,15.88
2018-06-25T01:38:08.469Z,15.76
2018-06-25T01:40:38.684Z,15.77
2018-06-25T01:43:09.003Z,15.83
2018-06-25T01:45:39.196Z,15.79
2018-06-25T01:48:09.325Z,15.57
2018-06-25T01:50:39.868Z,15.70
2018-06-25T01:53:09.813Z,15.76
2018-06-25T01:55:39.519Z,15.83
2018-06-25T01:58:09.688Z,15.88
2018-06-25T02:00:40.320Z,15.82
2018-06-25T02:03:10.522Z,15.93
2018-06-25T02:05:40.589Z,16.00
2018-06-25T02:08:10.969Z,15.98
2018-06-25T02:10:41.163Z,16.08
2018-06-25T02:13:11.253Z,16.16
2018-06-25T02:15:41.119Z,16.23
2018-06-25T02:18:11.468Z,16.29
2018-06-25T02:20:41.973Z,16.35
2018-06-25T02:23:12.058Z,16.34
2018-06-25T02:25:42.399Z,16.34
2018-06-25T02:28:12.545Z,16.35
2018-06-25T02:30:42.743Z,16.39
2018-06-25T02:33:12.810Z,16.36
2018-06-25T02:35:43.125Z,16.31
2018-06-25T02:38:13.333Z,16.29
2018-06-25T02:40:43.486Z,16.23
2018-06-25T02:43:13.659Z,16.20
2018-06-25T02:45:43.849Z,16.16
2018-06-25T02:48:14.135Z,16.16
2018-06-25T02:50:44.079Z,16.20
2018-06-25T02:53:15.111Z,16.20
2018-06-25T02:55:46.569Z,16.16
2018-06-25T02:58:17.260Z,16.11
2018-06-25T03:00:48.099Z,16.14
2018-06-25T03:03:18.643Z,16.06
2018-06-25T03:05:48.815Z,15.97
2018-06-25T03:08:19.013Z,15.82
2018-06-25T03:10:49.085Z,15.86
2018-06-25T03:13:19.003Z,15.91
2018-06-25T03:15:49.182Z,15.97
2018-06-25T03:18:19.365Z,15.93
2018-06-25T03:20:49.569Z,15.98
2018-06-25T03:23:19.770Z,15.87
2018-06-25T03:25:49.971Z,15.89
2018-06-25T03:28:20.061Z,15.90
2018-06-25T03:30:49.929Z,16.02
2018-06-25T03:33:20.119Z,15.99
2018-06-25T03:35:50.654Z,15.93
2018-06-25T03:38:20.916Z,15.91
2018-06-25T03:40:51.160Z,15.94
2018-06-25T03:43:21.339Z,15.94
2018-06-25T03:45:51.466Z,16.06
2018-06-25T03:48:21.704Z,15.96
2018-06-25T03:50:52.034Z,15.86
2018-06-25T03:53:22.165Z,15.82
2018-06-25T03:55:52.261Z,15.77
2018-06-25T03:58:22.328Z,15.73
2018-06-25T04:00:52.839Z,15.68
2018-06-25T04:03:23.081Z,15.72
2018-06-25T04:05:52.995Z,15.75
2018-06-25T04:08:23.275Z,15.84
2018-06-25T04:10:53.416Z,15.96
2018-06-25T04:13:23.237Z,15.98
2018-06-25T04:15:53.464Z,15.96
2018-06-25T04:18:23.524Z,16.03
2018-06-25T04:20:53.900Z,16.05
2018-06-25T04:23:24.245Z,16.00
2018-06-25T04:25:55.770Z,16.03
2018-06-25T04:30:28.231Z,16.07
2018-06-25T04:32:58.935Z,16.14
2018-06-25T04:35:29.885Z,16.01
2018-06-25T04:40:30.784Z,16.06
2018-06-25T04:43:01.150Z,16.06
2018-06-25T04:45:31.021Z,16.01
2018-06-25T04:48:01.110Z,16.04
2018-06-25T04:50:31.292Z,16.00
2018-06-25T04:53:01.466Z,16.00
2018-06-25T04:55:31.755Z,16.15
2018-06-25T04:58:01.969Z,16.19
2018-06-25T05:00:32.689Z,16.15
2018-06-25T05:03:02.685Z,16.11
2018-06-25T05:05:32.910Z,16.07
2018-06-25T05:08:03.430Z,16.08
2018-06-25T05:10:33.615Z,16.12
2018-06-25T05:13:03.913Z,16.18
2018-06-25T05:15:34.346Z,16.21
2018-06-25T05:18:04.996Z,16.25
2018-06-25T05:20:35.135Z,16.27
2018-06-25T05:23:05.765Z,16.21
2018-06-25T05:25:35.920Z,16.20
2018-06-25T05:28:06.063Z,16.30
2018-06-25T05:30:36.402Z,16.27
2018-06-25T05:33:07.110Z,16.16
2018-06-25T05:35:37.621Z,16.29
2018-06-25T05:38:07.913Z,16.22
2018-06-25T05:40:38.193Z,16.14
2018-06-25T05:43:08.485Z,16.13
2018-06-25T05:45:38.439Z,16.17
2018-06-25T05:48:08.698Z,16.24
2018-06-25T05:50:38.791Z,16.31
2018-06-25T05:53:09.099Z,16.30
2018-06-25T05:55:39.234Z,16.28
2018-06-25T05:58:09.480Z,16.19
2018-06-25T06:00:39.538Z,16.14
2018-06-25T06:03:09.744Z,16.20
2018-06-25T06:05:40.036Z,16.22
2018-06-25T06:08:10.284Z,16.27
2018-06-25T06:10:40.419Z,16.24
2018-06-25T06:13:11.201Z,16.23
2018-06-25T06:15:42.606Z,16.31
2018-06-25T06:18:12.983Z,16.30
2018-06-25T06:20:43.209Z,16.38
2018-06-25T06:23:13.481Z,16.40
2018-06-25T06:25:43.660Z,16.37
2018-06-25T06:28:13.611Z,16.38
2018-06-25T06:30:43.502Z,16.42
2018-06-25T06:33:13.570Z,16.54
2018-06-25T06:35:43.537Z,16.58
2018-06-25T06:38:13.639Z,16.67
2018-06-25T06:40:43.815Z,16.65
2018-06-25T06:43:13.896Z,16.46
2018-06-25T06:45:44.210Z,16.53
2018-06-25T06:48:14.322Z,16.44
2018-06-25T06:50:44.430Z,16.33
2018-06-25T06:53:14.662Z,16.30
2018-06-25T06:55:44.926Z,16.41
2018-06-25T06:58:15.154Z,16.44
2018-06-25T07:00:45.316Z,16.58
2018-06-25T07:03:15.274Z,16.74
2018-06-25T07:05:45.701Z,16.81
2018-06-25T07:08:15.822Z,16.86
2018-06-25T07:10:46.011Z,16.90
2018-06-25T07:13:16.332Z,16.95
2018-06-25T07:15:46.381Z,16.93
2018-06-25T07:18:16.684Z,16.97
2018-06-25T07:20:46.854Z,16.87
2018-06-25T07:23:17.175Z,16.89
2018-06-25T07:25:47.177Z,16.90
2018-06-25T07:28:17.390Z,16.97
2018-06-25T07:30:47.690Z,17.03
2018-06-25T07:33:17.905Z,17.08
2018-06-25T07:35:48.140Z,17.03
2018-06-25T07:38:18.216Z,17.04
2018-06-25T07:40:48.495Z,17.07
2018-06-25T07:43:18.602Z,16.95
2018-06-25T07:45:48.886Z,16.97
2018-06-25T07:48:19.071Z,16.86
2018-06-25T07:50:49.389Z,16.90
2018-06-25T07:53:19.590Z,16.91
2018-06-25T07:55:49.626Z,17.04
2018-06-25T07:58:19.767Z,17.04
2018-06-25T08:00:49.481Z,17.24
2018-06-25T08:03:19.415Z,17.27
2018-06-25T08:05:49.526Z,17.31
2018-06-25T08:08:19.682Z,17.29
2018-06-25T08:10:49.796Z,17.35
2018-06-25T08:13:20.037Z,17.42
2018-06-25T08:15:50.416Z,17.42
2018-06-25T08:18:20.930Z,17.40
2018-06-25T08:20:50.800Z,17.25
2018-06-25T08:23:20.947Z,17.30
2018-06-25T08:25:51.070Z,17.45
2018-06-25T08:28:21.087Z,17.60
2018-06-25T08:30:51.441Z,17.77
2018-06-25T08:33:21.517Z,17.80
2018-06-25T08:35:51.687Z,17.97
2018-06-25T08:38:22.036Z,18.21
2018-06-25T08:40:52.227Z,18.39
2018-06-25T08:43:22.465Z,18.53
2018-06-25T08:45:52.673Z,18.68
2018-06-25T08:48:22.824Z,18.76
2018-06-25T08:50:53.111Z,18.91
2018-06-25T08:53:23.165Z,19.03
2018-06-25T08:55:53.415Z,19.10
2018-06-25T08:58:23.392Z,19.13
2018-06-25T09:00:53.882Z,19.23
2018-06-25T09:03:23.992Z,19.33
2018-06-25T09:05:54.196Z,19.48
2018-06-25T09:08:24.324Z,19.49
2018-06-25T09:10:54.560Z,19.43
2018-06-25T09:13:24.717Z,19.36
2018-06-25T09:15:55.023Z,19.35
2018-06-25T09:18:25.216Z,19.32
2018-06-25T09:20:55.242Z,19.29
2018-06-25T09:23:25.447Z,19.27
2018-06-25T09:25:55.741Z,19.24
2018-06-25T09:28:25.864Z,19.23
2018-06-25T09:30:55.937Z,19.25
2018-06-25T09:33:26.414Z,19.07
2018-06-25T09:35:56.482Z,19.08
2018-06-25T09:38:26.721Z,19.05
2018-06-25T09:40:56.962Z,19.11
2018-06-25T09:43:27.118Z,19.16
2018-06-25T09:45:57.370Z,19.21
2018-06-25T09:48:27.465Z,19.26
2018-06-25T09:50:57.653Z,19.20
2018-06-25T09:53:27.832Z,19.08
2018-06-25T09:55:58.063Z,18.95
2018-06-25T09:58:28.162Z,18.85
2018-06-25T10:01:03.219Z,18.89
2018-06-25T10:03:33.554Z,18.93
2018-06-25T10:06:03.787Z,19.03
2018-06-25T10:08:34.088Z,19.13
2018-06-25T10:11:04.393Z,19.33
2018-06-25T10:13:34.706Z,19.55
2018-06-25T10:16:04.577Z,19.70
2018-06-25T10:18:34.774Z,19.82
2018-06-25T10:21:04.733Z,19.77
2018-06-25T10:23:34.921Z,19.70
2018-06-25T10:26:05.295Z,19.60
2018-06-25T10:28:36.471Z,19.60
2018-06-25T10:40:27.602Z,19.52
2018-06-25T10:42:57.786Z,19.62
2018-06-25T10:45:28.108Z,19.67
2018-06-25T10:47:58.027Z,19.75
2018-06-25T10:50:28.178Z,19.85
2018-06-25T10:52:58.500Z,20.03
2018-06-25T10:55:29.400Z,20.20
2018-06-25T10:58:00.028Z,20.28
2018-06-25T11:00:30.348Z,20.32
2018-06-25T11:03:00.464Z,20.35
2018-06-25T11:05:30.617Z,20.31
2018-06-25T11:08:00.662Z,20.20
2018-06-25T11:10:30.935Z,20.25
2018-06-25T11:13:01.116Z,20.32
2018-06-25T11:15:31.152Z,20.38
2018-06-25T11:18:01.067Z,20.41
2018-06-25T11:20:31.432Z,20.43
2018-06-25T11:23:01.878Z,20.24
2018-06-25T11:25:31.873Z,20.28
2018-06-25T11:28:02.103Z,20.39
2018-06-25T11:30:32.316Z,20.73
2018-06-25T11:33:02.284Z,20.59
2018-06-25T11:35:32.673Z,20.81
2018-06-25T11:38:02.773Z,20.68
2018-06-25T11:40:32.997Z,20.57
2018-06-25T11:43:03.240Z,20.50
2018-06-25T11:45:33.449Z,20.47
2018-06-25T11:48:03.687Z,20.51
2018-06-25T11:50:33.964Z,20.57
2018-06-25T11:53:04.185Z,20.64
2018-06-25T11:55:34.318Z,20.73
2018-06-25T11:58:04.571Z,20.82
2018-06-25T12:00:34.772Z,21.04
2018-06-25T12:03:04.980Z,21.18
2018-06-25T12:05:34.904Z,21.08
2018-06-25T12:08:05.386Z,21.04
2018-06-25T12:10:35.535Z,21.08
2018-06-25T12:13:05.861Z,21.26
2018-06-25T12:15:35.883Z,21.57
2018-06-25T12:18:06.123Z,21.75
2018-06-25T12:20:36.471Z,21.77
2018-06-25T12:23:06.964Z,21.99
2018-06-25T12:25:37.122Z,22.20
2018-06-25T12:28:06.885Z,22.23
2018-06-25T12:30:38.295Z,22.37
2018-06-25T12:33:08.647Z,22.44
2018-06-25T12:35:38.728Z,22.41
2018-06-25T12:38:08.807Z,22.28
2018-06-25T12:40:39.131Z,22.39
2018-06-25T12:43:09.325Z,22.33
2018-06-25T12:45:39.477Z,22.26
2018-06-25T12:48:09.524Z,22.11
2018-06-25T12:50:39.739Z,22.03
2018-06-25T12:53:09.759Z,22.10
2018-06-25T12:55:39.941Z,22.29
2018-06-25T12:58:10.854Z,22.54
2018-06-25T13:00:41.754Z,22.68
2018-06-25T13:03:11.709Z,22.76
2018-06-25T13:05:42.490Z,22.85
2018-06-25T13:08:14.192Z,22.90
2018-06-25T13:10:44.152Z,22.79
2018-06-25T13:13:14.379Z,22.78
2018-06-25T13:15:44.439Z,22.70
2018-06-25T13:18:15.610Z,22.81
2018-06-25T13:20:46.027Z,23.07
2018-06-25T13:23:15.977Z,23.24
2018-06-25T13:25:47.354Z,23.31
2018-06-25T13:28:17.267Z,23.28
2018-06-25T13:30:47.532Z,23.03
2018-06-25T13:33:17.746Z,23.07
2018-06-25T13:35:47.948Z,23.23
2018-06-25T13:38:18.252Z,23.40
2018-06-25T13:40:48.476Z,23.28
2018-06-25T13:43:18.537Z,23.24
2018-06-25T13:45:48.702Z,23.07
2018-06-25T13:48:18.986Z,23.19
2018-06-25T13:50:49.186Z,23.15
2018-06-25T13:53:19.258Z,23.30
2018-06-25T13:55:49.478Z,23.24
2018-06-25T13:58:19.678Z,23.10
2018-06-25T14:00:50.042Z,22.94
2018-06-25T14:03:20.254Z,23.12
2018-06-25T14:05:50.871Z,23.47
2018-06-25T14:08:21.300Z,23.87
2018-06-25T14:10:51.736Z,23.91
2018-06-25T14:13:22.048Z,23.92
2018-06-25T14:15:52.090Z,23.76
2018-06-25T14:18:22.388Z,23.54
2018-06-25T14:20:52.406Z,23.73
2018-06-25T14:23:22.855Z,24.14
2018-06-25T14:25:58.205Z,24.09
2018-06-25T14:28:32.559Z,24.02
2018-06-25T14:31:08.084Z,23.93
2018-06-25T14:33:40.904Z,23.92
2018-06-25T14:36:11.193Z,24.05
2018-06-25T14:38:41.422Z,24.39
2018-06-25T14:41:11.603Z,24.58
2018-06-25T14:43:41.846Z,24.59
2018-06-25T14:46:11.972Z,24.93
2018-06-25T14:48:42.258Z,25.35
2018-06-25T14:51:12.299Z,25.72
2018-06-25T14:53:42.526Z,25.88
2018-06-25T14:56:12.858Z,26.16
2018-06-25T14:58:43.137Z,26.01
2018-06-25T15:01:13.615Z,26.06
2018-06-25T15:03:43.722Z,26.37
2018-06-25T15:06:14.154Z,26.65
2018-06-25T15:08:44.638Z,26.86
2018-06-25T15:11:14.598Z,26.87
2018-06-25T15:13:44.710Z,26.89
2018-06-25T15:16:15.167Z,26.96
2018-06-25T15:18:45.505Z,27.29
2018-06-25T15:21:16.788Z,27.07
2018-06-25T15:23:47.998Z,27.02
2018-06-25T15:26:18.908Z,26.73
2018-06-25T15:28:49.810Z,26.35
2018-06-25T15:31:21.002Z,26.29
2018-06-25T15:33:51.678Z,26.16
2018-06-25T15:36:21.849Z,26.33
2018-06-25T15:38:51.933Z,26.63
2018-06-25T15:41:22.190Z,26.88
2018-06-25T15:43:52.249Z,26.79
2018-06-25T15:46:22.483Z,26.81
2018-06-25T15:48:52.669Z,26.74
2018-06-25T15:51:22.653Z,26.81
2018-06-25T15:53:52.202Z,27.16
2018-06-25T15:56:22.844Z,27.45
2018-06-25T15:58:53.077Z,27.96
2018-06-25T16:01:23.577Z,28.46
2018-06-25T16:03:53.486Z,28.28
2018-06-25T16:06:24.106Z,28.26
2018-06-25T16:08:54.314Z,28.10
2018-06-25T16:11:24.491Z,28.19
2018-06-25T16:13:54.722Z,28.14
2018-06-25T16:16:24.938Z,28.44
2018-06-25T16:18:55.226Z,28.45
2018-06-25T16:21:25.293Z,29.35
2018-06-25T16:23:57.327Z,30.13
2018-06-25T16:26:27.554Z,30.90
2018-06-25T16:28:57.940Z,31.06
2018-06-25T16:31:28.082Z,31.34
2018-06-25T16:33:58.216Z,31.22
2018-06-25T16:36:28.507Z,31.25
2018-06-25T16:38:58.816Z,31.15
2018-06-25T16:41:28.970Z,30.87
2018-06-25T16:43:59.464Z,31.72
2018-06-25T16:46:32.138Z,31.73
2018-06-25T16:49:02.592Z,32.35
2018-06-25T16:51:33.005Z,32.08
2018-06-25T16:54:02.948Z,32.87
2018-06-25T16:56:33.028Z,32.50
2018-06-25T16:59:03.442Z,31.19
2018-06-25T17:01:33.765Z,31.32
2018-06-25T17:04:04.032Z,32.07
2018-06-25T17:06:34.564Z,32.28
2018-06-25T17:09:07.347Z,32.38
2018-06-25T17:11:37.741Z,33.03
2018-06-25T17:14:08.217Z,32.70
2018-06-25T17:16:38.297Z,32.34
2018-06-25T17:19:09.148Z,31.27
2018-06-25T17:21:39.625Z,31.16
2018-06-25T17:24:09.961Z,31.91
2018-06-25T17:26:40.357Z,32.05
2018-06-25T17:29:11.394Z,32.80
2018-06-25T17:31:41.672Z,32.49
2018-06-25T17:34:11.894Z,32.76
2018-06-25T17:36:41.692Z,33.28
2018-06-25T17:39:12.214Z,32.87
2018-06-25T17:41:42.605Z,32.48
2018-06-25T17:44:12.705Z,30.46
2018-06-25T17:46:43.723Z,30.33
2018-06-25T17:49:13.957Z,30.44
2018-06-25T17:51:44.073Z,30.38
2018-06-25T17:54:14.089Z,30.16
2018-06-25T17:56:44.482Z,30.68
2018-06-25T17:59:14.707Z,31.22
2018-06-25T18:01:44.748Z,31.75
2018-06-25T18:04:15.032Z,31.91
2018-06-25T18:06:45.133Z,31.68
2018-06-25T18:09:15.725Z,31.35
2018-06-25T18:11:46.112Z,31.25
2018-06-25T18:14:16.174Z,31.06
2018-06-25T18:16:46.172Z,30.91
2018-06-25T18:19:16.351Z,30.93
2018-06-25T18:21:46.416Z,30.74
2018-06-25T18:24:16.584Z,30.93
2018-06-25T18:26:46.722Z,30.90
2018-06-25T18:29:17.005Z,30.52
2018-06-25T18:31:47.177Z,30.60
2018-06-25T18:34:17.528Z,30.19
2018-06-25T18:36:47.704Z,29.75
2018-06-25T18:39:18.576Z,28.97
2018-06-25T18:41:49.179Z,28.01
2018-06-25T18:44:19.564Z,27.12
2018-06-25T18:46:49.942Z,26.39
2018-06-25T18:49:20.084Z,25.86
2018-06-25T18:51:49.818Z,25.40
2018-06-25T18:54:20.183Z,24.99
2018-06-25T18:56:50.509Z,24.66
2018-06-25T18:59:20.751Z,24.46
2018-06-25T19:01:50.915Z,24.17
2018-06-25T19:04:20.930Z,23.93
2018-06-25T19:06:51.176Z,23.75
2018-06-25T19:09:21.309Z,23.63
2018-06-25T19:11:51.474Z,23.59
2018-06-25T19:14:21.683Z,23.52
2018-06-25T19:16:51.708Z,23.41
2018-06-25T19:19:21.934Z,23.38
2018-06-25T19:21:52.181Z,23.26
2018-06-25T19:24:22.445Z,23.21
2018-06-25T19:26:52.513Z,23.10
2018-06-25T19:29:22.679Z,23.04
2018-06-25T19:31:53.032Z,23.04
2018-06-25T19:34:23.619Z,22.96
2018-06-25T19:36:54.034Z,22.92
2018-06-25T19:39:24.372Z,22.94
2018-06-25T19:41:54.545Z,22.85
2018-06-25T19:44:24.594Z,22.80
2018-06-25T19:46:54.548Z,22.84
2018-06-25T19:49:24.448Z,22.84
2018-06-25T19:51:54.959Z,22.81
2018-06-25T19:54:25.940Z,22.79
2018-06-25T19:56:56.617Z,22.74
2018-06-25T19:59:26.983Z,22.72
2018-06-25T20:01:57.148Z,22.65
2018-06-25T20:04:27.354Z,22.56
2018-06-25T20:06:57.608Z,22.45
2018-06-25T20:09:27.537Z,22.46
2018-06-25T20:11:57.961Z,22.46
2018-06-25T20:14:28.069Z,22.43
2018-06-25T20:16:58.295Z,22.42
2018-06-25T20:19:28.554Z,22.38
2018-06-25T20:21:58.828Z,22.30
2018-06-25T20:24:29.004Z,22.22
2018-06-25T20:26:59.195Z,22.14
2018-06-25T20:29:29.193Z,22.11
2018-06-25T20:31:59.440Z,22.11
2018-06-25T20:34:29.807Z,21.98
2018-06-25T20:36:59.955Z,21.95
2018-06-25T20:39:30.187Z,21.98
2018-06-25T20:42:00.312Z,21.90
2018-06-25T20:44:30.569Z,21.91
2018-06-25T20:47:00.728Z,21.87
2018-06-25T20:49:31.089Z,21.78
2018-06-25T20:52:01.224Z,21.67
2018-06-25T20:54:31.428Z,21.63
2018-06-25T20:57:01.905Z,21.65
2018-06-25T20:59:32.545Z,21.59
2018-06-25T21:02:02.649Z,21.60
2018-06-25T21:04:32.929Z,21.45
2018-06-25T21:07:03.047Z,21.38
2018-06-25T21:09:33.385Z,21.31
2018-06-25T21:12:03.440Z,21.27
2018-06-25T21:14:33.628Z,21.30
2018-06-25T21:17:04.180Z,21.31
2018-06-25T21:19:35.156Z,21.31
2018-06-25T21:22:06.158Z,21.34
2018-06-25T21:24:37.033Z,21.37
2018-06-25T21:30:29.548Z,21.28
2018-06-25T21:32:59.763Z,21.21
2018-06-25T21:35:29.974Z,21.26
2018-06-25T21:38:00.019Z,21.21
2018-06-25T21:40:30.158Z,21.18
2018-06-25T21:43:00.314Z,21.18
2018-06-25T21:45:30.918Z,21.19
2018-06-25T21:48:01.007Z,21.19
2018-06-25T21:50:31.045Z,21.11
2018-06-25T21:53:01.309Z,20.96
2018-06-25T21:55:31.467Z,20.92
2018-06-25T21:58:01.695Z,20.97
2018-06-25T22:00:47.453Z,20.96
2018-06-25T22:03:18.048Z,20.97
2018-06-25T22:05:49.000Z,20.86
2018-06-25T22:08:19.219Z,20.83
2018-06-25T22:10:49.348Z,20.54
2018-06-25T22:13:19.549Z,20.42
2018-06-25T22:15:49.623Z,20.31
2018-06-25T22:18:19.805Z,20.33
2018-06-25T22:20:50.656Z,20.22
2018-06-25T22:23:20.973Z,20.19
2018-06-25T22:25:51.379Z,20.19
2018-06-25T22:28:21.588Z,20.18
2018-06-25T22:30:51.778Z,20.21
2018-06-25T22:33:22.265Z,20.21
2018-06-25T22:35:52.153Z,20.24
2018-06-25T22:38:22.404Z,20.25
2018-06-25T22:40:52.505Z,20.17
2018-06-25T22:43:22.863Z,20.13
2018-06-25T22:45:52.924Z,20.02
2018-06-25T22:48:23.074Z,19.79
2018-06-25T22:50:53.257Z,19.84
2018-06-25T22:53:23.600Z,19.76
2018-06-25T22:55:53.702Z,19.68
2018-06-25T22:58:23.533Z,19.48
2018-06-25T23:00:53.479Z,19.53
2018-06-25T23:03:23.915Z,19.57
2018-06-25T23:05:53.783Z,19.50
2018-06-25T23:08:23.915Z,19.47
2018-06-25T23:10:53.804Z,19.38
2018-06-25T23:20:28.636Z,19.46
2018-06-25T23:22:58.825Z,19.46
2018-06-25T23:25:29.877Z,19.44
2018-06-25T23:28:01.764Z,19.49
2018-06-25T23:30:31.719Z,19.35
2018-06-25T23:33:02.759Z,19.32
2018-06-25T23:35:33.258Z,19.32
2018-06-25T23:38:03.734Z,19.26
2018-06-25T23:40:33.573Z,19.21
2018-06-25T23:43:03.409Z,19.16
2018-06-25T23:45:33.413Z,19.07
2018-06-25T23:48:03.360Z,19.03
2018-06-25T23:50:33.373Z,19.03
2018-06-25T23:53:03.488Z,18.98
2018-06-25T23:55:33.613Z,19.02
2018-06-25T23:58:04.134Z,18.88
